sensor_id;sensor_type;location;lat;lon;timestamp;P1;durP1;ratioP1;P2;durP2;ratioP2
71166;SDS011;58864;45.928;20.078;2023-04-05T00:01:44;7.88;;;2.20;;
71166;SDS011;58864;45.928;20.078;2023-04-05T00:04:13;7.45;;;2.25;;
71166;SDS011;58864;45.928;20.078;2023-04-05T00:06:37;5.50;;;2.10;;
71166;SDS011;58864;45.928;20.078;2023-04-05T00:09:03;6.50;;;2.20;;
71166;SDS011;58864;45.928;20.078;2023-04-05T00:11:28;7.68;;;2.38;;
71166;SDS011;58864;45.928;20.078;2023-04-05T00:13:54;7.00;;;2.40;;
71166;SDS011;58864;45.928;20.078;2023-04-05T00:16:19;7.38;;;2.25;;
71166;SDS011;58864;45.928;20.078;2023-04-05T00:18:44;7.20;;;2.43;;
71166;SDS011;58864;45.928;20.078;2023-04-05T00:21:09;6.40;;;2.10;;
71166;SDS011;58864;45.928;20.078;2023-04-05T00:23:34;6.65;;;2.40;;
71166;SDS011;58864;45.928;20.078;2023-04-05T00:26:02;8.07;;;2.30;;
71166;SDS011;58864;45.928;20.078;2023-04-05T00:28:27;7.80;;;2.40;;
71166;SDS011;58864;45.928;20.078;2023-04-05T00:30:51;7.83;;;2.53;;
71166;SDS011;58864;45.928;20.078;2023-04-05T00:33:15;6.00;;;2.28;;
71166;SDS011;58864;45.928;20.078;2023-04-05T00:35:40;6.90;;;2.30;;
71166;SDS011;58864;45.928;20.078;2023-04-05T00:38:04;8.77;;;2.90;;
71166;SDS011;58864;45.928;20.078;2023-04-05T00:40:29;6.93;;;2.00;;
71166;SDS011;58864;45.928;20.078;2023-04-05T00:42:53;7.32;;;2.47;;
71166;SDS011;58864;45.928;20.078;2023-04-05T00:45:18;7.33;;;2.73;;
71166;SDS011;58864;45.928;20.078;2023-04-05T00:47:42;7.43;;;2.33;;
71166;SDS011;58864;45.928;20.078;2023-04-05T00:50:10;5.57;;;2.00;;
71166;SDS011;58864;45.928;20.078;2023-04-05T00:52:36;6.18;;;2.05;;
71166;SDS011;58864;45.928;20.078;2023-04-05T00:55:01;6.50;;;2.50;;
71166;SDS011;58864;45.928;20.078;2023-04-05T00:57:25;7.70;;;2.40;;
71166;SDS011;58864;45.928;20.078;2023-04-05T00:59:53;6.97;;;2.40;;
71166;SDS011;58864;45.928;20.078;2023-04-05T01:02:20;9.47;;;3.07;;
71166;SDS011;58864;45.928;20.078;2023-04-05T01:04:57;11.40;;;2.45;;
71166;SDS011;58864;45.928;20.078;2023-04-05T01:07:28;9.20;;;3.08;;
71166;SDS011;58864;45.928;20.078;2023-04-05T01:09:55;7.88;;;2.60;;
71166;SDS011;58864;45.928;20.078;2023-04-05T01:12:22;7.32;;;2.40;;
71166;SDS011;58864;45.928;20.078;2023-04-05T01:14:49;8.50;;;2.87;;
71166;SDS011;58864;45.928;20.078;2023-04-05T01:17:22;7.82;;;2.55;;
71166;SDS011;58864;45.928;20.078;2023-04-05T01:19:55;8.02;;;2.60;;
71166;SDS011;58864;45.928;20.078;2023-04-05T01:30:37;8.63;;;3.55;;
71166;SDS011;58864;45.928;20.078;2023-04-05T01:35:54;8.43;;;3.20;;
71166;SDS011;58864;45.928;20.078;2023-04-05T01:38:23;7.85;;;3.28;;
71166;SDS011;58864;45.928;20.078;2023-04-05T01:40:48;9.53;;;3.50;;
71166;SDS011;58864;45.928;20.078;2023-04-05T01:43:13;10.82;;;3.33;;
71166;SDS011;58864;45.928;20.078;2023-04-05T01:45:39;9.95;;;3.25;;
71166;SDS011;58864;45.928;20.078;2023-04-05T01:48:07;9.77;;;3.42;;
71166;SDS011;58864;45.928;20.078;2023-04-05T01:50:31;10.17;;;3.93;;
71166;SDS011;58864;45.928;20.078;2023-04-05T01:52:56;8.80;;;3.30;;
71166;SDS011;58864;45.928;20.078;2023-04-05T01:55:20;9.38;;;3.30;;
71166;SDS011;58864;45.928;20.078;2023-04-05T01:57:45;9.03;;;3.53;;
71166;SDS011;58864;45.928;20.078;2023-04-05T02:00:09;11.20;;;3.50;;
71166;SDS011;58864;45.928;20.078;2023-04-05T02:02:35;9.65;;;3.50;;
71166;SDS011;58864;45.928;20.078;2023-04-05T02:04:59;10.70;;;3.87;;
71166;SDS011;58864;45.928;20.078;2023-04-05T02:07:23;11.27;;;3.67;;
71166;SDS011;58864;45.928;20.078;2023-04-05T02:09:50;9.07;;;3.42;;
71166;SDS011;58864;45.928;20.078;2023-04-05T02:12:14;10.00;;;3.60;;
71166;SDS011;58864;45.928;20.078;2023-04-05T02:14:38;8.83;;;4.07;;
71166;SDS011;58864;45.928;20.078;2023-04-05T02:17:03;9.13;;;3.60;;
71166;SDS011;58864;45.928;20.078;2023-04-05T02:19:27;9.97;;;3.50;;
71166;SDS011;58864;45.928;20.078;2023-04-05T02:21:54;14.10;;;4.10;;
71166;SDS011;58864;45.928;20.078;2023-04-05T02:24:19;9.63;;;3.83;;
71166;SDS011;58864;45.928;20.078;2023-04-05T02:26:44;10.23;;;3.95;;
71166;SDS011;58864;45.928;20.078;2023-04-05T02:29:09;11.10;;;3.90;;
71166;SDS011;58864;45.928;20.078;2023-04-05T02:31:33;11.43;;;3.90;;
71166;SDS011;58864;45.928;20.078;2023-04-05T02:33:58;10.07;;;3.93;;
71166;SDS011;58864;45.928;20.078;2023-04-05T02:36:24;10.50;;;3.67;;
71166;SDS011;58864;45.928;20.078;2023-04-05T02:38:51;10.80;;;3.72;;
71166;SDS011;58864;45.928;20.078;2023-04-05T02:41:15;10.17;;;3.60;;
71166;SDS011;58864;45.928;20.078;2023-04-05T02:43:40;11.75;;;3.85;;
71166;SDS011;58864;45.928;20.078;2023-04-05T02:46:05;8.50;;;3.30;;
71166;SDS011;58864;45.928;20.078;2023-04-05T02:48:29;9.87;;;3.70;;
71166;SDS011;58864;45.928;20.078;2023-04-05T02:50:53;8.57;;;3.50;;
71166;SDS011;58864;45.928;20.078;2023-04-05T02:53:18;10.95;;;3.60;;
71166;SDS011;58864;45.928;20.078;2023-04-05T02:55:50;11.90;;;3.67;;
71166;SDS011;58864;45.928;20.078;2023-04-05T02:58:16;11.18;;;3.78;;
71166;SDS011;58864;45.928;20.078;2023-04-05T03:00:40;9.23;;;4.00;;
71166;SDS011;58864;45.928;20.078;2023-04-05T03:03:04;9.97;;;3.67;;
71166;SDS011;58864;45.928;20.078;2023-04-05T03:05:29;10.77;;;3.60;;
71166;SDS011;58864;45.928;20.078;2023-04-05T03:07:53;9.87;;;3.50;;
71166;SDS011;58864;45.928;20.078;2023-04-05T03:10:20;9.27;;;3.97;;
71166;SDS011;58864;45.928;20.078;2023-04-05T03:12:45;11.52;;;3.60;;
71166;SDS011;58864;45.928;20.078;2023-04-05T03:15:10;11.87;;;3.93;;
71166;SDS011;58864;45.928;20.078;2023-04-05T03:17:34;8.50;;;3.50;;
71166;SDS011;58864;45.928;20.078;2023-04-05T03:20:00;10.43;;;3.77;;
71166;SDS011;58864;45.928;20.078;2023-04-05T03:22:25;9.07;;;3.35;;
71166;SDS011;58864;45.928;20.078;2023-04-05T03:24:50;9.93;;;3.65;;
71166;SDS011;58864;45.928;20.078;2023-04-05T03:27:15;10.02;;;3.90;;
71166;SDS011;58864;45.928;20.078;2023-04-05T03:29:41;9.30;;;3.58;;
71166;SDS011;58864;45.928;20.078;2023-04-05T03:32:06;10.93;;;3.83;;
71166;SDS011;58864;45.928;20.078;2023-04-05T03:34:34;11.50;;;4.03;;
71166;SDS011;58864;45.928;20.078;2023-04-05T03:36:59;9.20;;;3.40;;
71166;SDS011;58864;45.928;20.078;2023-04-05T03:39:23;11.73;;;3.93;;
71166;SDS011;58864;45.928;20.078;2023-04-05T03:41:48;11.38;;;3.88;;
71166;SDS011;58864;45.928;20.078;2023-04-05T03:44:12;12.00;;;4.10;;
71166;SDS011;58864;45.928;20.078;2023-04-05T03:46:37;10.23;;;3.63;;
71166;SDS011;58864;45.928;20.078;2023-04-05T03:49:01;10.07;;;3.83;;
71166;SDS011;58864;45.928;20.078;2023-04-05T03:51:26;12.70;;;3.78;;
71166;SDS011;58864;45.928;20.078;2023-04-05T03:53:51;11.37;;;4.27;;
71166;SDS011;58864;45.928;20.078;2023-04-05T03:56:16;13.53;;;4.20;;
71166;SDS011;58864;45.928;20.078;2023-04-05T03:58:40;11.25;;;4.47;;
71166;SDS011;58864;45.928;20.078;2023-04-05T04:01:05;12.13;;;4.30;;
71166;SDS011;58864;45.928;20.078;2023-04-05T04:03:29;12.93;;;4.30;;
71166;SDS011;58864;45.928;20.078;2023-04-05T04:05:54;10.52;;;4.07;;
71166;SDS011;58864;45.928;20.078;2023-04-05T04:08:20;11.23;;;4.30;;
71166;SDS011;58864;45.928;20.078;2023-04-05T04:10:44;11.83;;;4.10;;
71166;SDS011;58864;45.928;20.078;2023-04-05T04:13:09;12.65;;;4.15;;
71166;SDS011;58864;45.928;20.078;2023-04-05T04:15:34;10.57;;;3.87;;
71166;SDS011;58864;45.928;20.078;2023-04-05T04:17:58;11.33;;;4.67;;
71166;SDS011;58864;45.928;20.078;2023-04-05T04:20:22;10.25;;;4.32;;
71166;SDS011;58864;45.928;20.078;2023-04-05T04:22:47;12.20;;;4.13;;
71166;SDS011;58864;45.928;20.078;2023-04-05T04:25:12;11.82;;;4.45;;
71166;SDS011;58864;45.928;20.078;2023-04-05T04:27:40;16.63;;;4.07;;
71166;SDS011;58864;45.928;20.078;2023-04-05T04:30:06;12.15;;;4.70;;
71166;SDS011;58864;45.928;20.078;2023-04-05T04:32:33;11.45;;;4.53;;
71166;SDS011;58864;45.928;20.078;2023-04-05T04:35:17;11.48;;;4.93;;
71166;SDS011;58864;45.928;20.078;2023-04-05T04:37:46;11.50;;;4.60;;
71166;SDS011;58864;45.928;20.078;2023-04-05T04:40:16;11.80;;;4.60;;
71166;SDS011;58864;45.928;20.078;2023-04-05T04:42:40;13.38;;;5.30;;
71166;SDS011;58864;45.928;20.078;2023-04-05T04:45:07;18.23;;;6.60;;
71166;SDS011;58864;45.928;20.078;2023-04-05T04:47:33;14.50;;;6.10;;
71166;SDS011;58864;45.928;20.078;2023-04-05T04:49:58;15.70;;;5.30;;
71166;SDS011;58864;45.928;20.078;2023-04-05T04:52:22;16.20;;;5.93;;
71166;SDS011;58864;45.928;20.078;2023-04-05T04:54:47;10.13;;;4.53;;
71166;SDS011;58864;45.928;20.078;2023-04-05T04:57:11;13.00;;;5.73;;
71166;SDS011;58864;45.928;20.078;2023-04-05T04:59:35;13.38;;;5.20;;
71166;SDS011;58864;45.928;20.078;2023-04-05T05:02:00;11.17;;;4.67;;
71166;SDS011;58864;45.928;20.078;2023-04-05T05:04:24;13.83;;;4.87;;
71166;SDS011;58864;45.928;20.078;2023-04-05T05:06:50;11.53;;;4.20;;
71166;SDS011;58864;45.928;20.078;2023-04-05T05:09:15;11.15;;;4.63;;
71166;SDS011;58864;45.928;20.078;2023-04-05T05:11:40;11.63;;;4.77;;
71166;SDS011;58864;45.928;20.078;2023-04-05T05:14:04;13.77;;;4.90;;
71166;SDS011;58864;45.928;20.078;2023-04-05T05:16:29;14.13;;;5.75;;
71166;SDS011;58864;45.928;20.078;2023-04-05T05:18:53;10.73;;;4.30;;
71166;SDS011;58864;45.928;20.078;2023-04-05T05:21:18;14.53;;;4.97;;
71166;SDS011;58864;45.928;20.078;2023-04-05T05:23:42;14.23;;;4.97;;
71166;SDS011;58864;45.928;20.078;2023-04-05T05:26:07;14.80;;;5.37;;
71166;SDS011;58864;45.928;20.078;2023-04-05T05:28:31;12.97;;;4.90;;
71166;SDS011;58864;45.928;20.078;2023-04-05T05:30:56;14.07;;;5.70;;
71166;SDS011;58864;45.928;20.078;2023-04-05T05:33:20;13.93;;;5.43;;
71166;SDS011;58864;45.928;20.078;2023-04-05T05:35:48;15.73;;;6.33;;
71166;SDS011;58864;45.928;20.078;2023-04-05T05:38:14;14.60;;;5.05;;
71166;SDS011;58864;45.928;20.078;2023-04-05T05:40:40;12.50;;;5.10;;
71166;SDS011;58864;45.928;20.078;2023-04-05T05:43:04;10.10;;;4.03;;
71166;SDS011;58864;45.928;20.078;2023-04-05T05:45:29;9.10;;;3.87;;
71166;SDS011;58864;45.928;20.078;2023-04-05T05:47:54;10.18;;;4.15;;
71166;SDS011;58864;45.928;20.078;2023-04-05T05:50:19;10.52;;;4.57;;
71166;SDS011;58864;45.928;20.078;2023-04-05T05:52:44;10.67;;;3.73;;
71166;SDS011;58864;45.928;20.078;2023-04-05T05:55:08;11.00;;;4.67;;
71166;SDS011;58864;45.928;20.078;2023-04-05T05:57:33;12.55;;;4.65;;
71166;SDS011;58864;45.928;20.078;2023-04-05T05:59:57;13.13;;;4.20;;
71166;SDS011;58864;45.928;20.078;2023-04-05T06:02:21;13.70;;;4.17;;
71166;SDS011;58864;45.928;20.078;2023-04-05T06:04:46;13.77;;;4.67;;
71166;SDS011;58864;45.928;20.078;2023-04-05T06:07:10;9.95;;;4.10;;
71166;SDS011;58864;45.928;20.078;2023-04-05T06:09:35;11.30;;;4.57;;
71166;SDS011;58864;45.928;20.078;2023-04-05T06:11:59;13.27;;;5.13;;
71166;SDS011;58864;45.928;20.078;2023-04-05T06:14:24;13.23;;;4.60;;
71166;SDS011;58864;45.928;20.078;2023-04-05T06:16:49;11.53;;;5.07;;
71166;SDS011;58864;45.928;20.078;2023-04-05T06:19:13;13.05;;;5.32;;
71166;SDS011;58864;45.928;20.078;2023-04-05T06:21:38;10.93;;;4.30;;
71166;SDS011;58864;45.928;20.078;2023-04-05T06:24:02;13.47;;;5.43;;
71166;SDS011;58864;45.928;20.078;2023-04-05T06:26:27;12.55;;;4.13;;
71166;SDS011;58864;45.928;20.078;2023-04-05T06:28:53;11.40;;;4.38;;
71166;SDS011;58864;45.928;20.078;2023-04-05T06:31:19;10.33;;;4.27;;
71166;SDS011;58864;45.928;20.078;2023-04-05T06:33:44;10.07;;;4.15;;
71166;SDS011;58864;45.928;20.078;2023-04-05T06:36:09;12.48;;;4.40;;
71166;SDS011;58864;45.928;20.078;2023-04-05T06:38:33;10.47;;;4.27;;
71166;SDS011;58864;45.928;20.078;2023-04-05T06:40:58;12.18;;;4.32;;
71166;SDS011;58864;45.928;20.078;2023-04-05T06:43:23;11.67;;;4.23;;
71166;SDS011;58864;45.928;20.078;2023-04-05T06:45:47;12.18;;;4.07;;
71166;SDS011;58864;45.928;20.078;2023-04-05T06:48:12;10.07;;;3.87;;
71166;SDS011;58864;45.928;20.078;2023-04-05T06:50:36;10.00;;;3.73;;
71166;SDS011;58864;45.928;20.078;2023-04-05T06:53:01;10.68;;;4.40;;
71166;SDS011;58864;45.928;20.078;2023-04-05T06:55:26;10.23;;;4.20;;
71166;SDS011;58864;45.928;20.078;2023-04-05T06:57:51;10.23;;;4.10;;
71166;SDS011;58864;45.928;20.078;2023-04-05T07:00:15;8.83;;;3.90;;
71166;SDS011;58864;45.928;20.078;2023-04-05T07:02:40;11.48;;;4.40;;
71166;SDS011;58864;45.928;20.078;2023-04-05T07:05:05;9.30;;;4.30;;
71166;SDS011;58864;45.928;20.078;2023-04-05T07:07:30;8.97;;;3.70;;
71166;SDS011;58864;45.928;20.078;2023-04-05T07:09:56;10.73;;;3.50;;
71166;SDS011;58864;45.928;20.078;2023-04-05T07:12:20;11.43;;;4.20;;
71166;SDS011;58864;45.928;20.078;2023-04-05T07:14:45;11.20;;;4.33;;
71166;SDS011;58864;45.928;20.078;2023-04-05T07:17:09;12.53;;;4.23;;
71166;SDS011;58864;45.928;20.078;2023-04-05T07:19:33;14.57;;;5.43;;
71166;SDS011;58864;45.928;20.078;2023-04-05T07:21:58;11.35;;;4.60;;
71166;SDS011;58864;45.928;20.078;2023-04-05T07:24:23;12.33;;;5.43;;
71166;SDS011;58864;45.928;20.078;2023-04-05T07:26:47;11.15;;;4.35;;
71166;SDS011;58864;45.928;20.078;2023-04-05T07:29:12;10.87;;;4.70;;
71166;SDS011;58864;45.928;20.078;2023-04-05T07:31:39;13.90;;;5.50;;
71166;SDS011;58864;45.928;20.078;2023-04-05T07:34:04;13.55;;;5.10;;
71166;SDS011;58864;45.928;20.078;2023-04-05T07:36:29;14.52;;;5.25;;
71166;SDS011;58864;45.928;20.078;2023-04-05T07:38:53;12.80;;;5.17;;
71166;SDS011;58864;45.928;20.078;2023-04-05T07:41:18;12.93;;;4.47;;
71166;SDS011;58864;45.928;20.078;2023-04-05T07:43:43;11.10;;;4.70;;
71166;SDS011;58864;45.928;20.078;2023-04-05T07:46:08;14.40;;;5.17;;
71166;SDS011;58864;45.928;20.078;2023-04-05T07:48:32;15.33;;;4.40;;
71166;SDS011;58864;45.928;20.078;2023-04-05T07:51:04;12.00;;;4.40;;
71166;SDS011;58864;45.928;20.078;2023-04-05T07:53:30;12.73;;;4.73;;
71166;SDS011;58864;45.928;20.078;2023-04-05T07:55:54;13.23;;;4.82;;
71166;SDS011;58864;45.928;20.078;2023-04-05T07:58:20;11.25;;;4.38;;
71166;SDS011;58864;45.928;20.078;2023-04-05T08:00:45;10.63;;;4.43;;
71166;SDS011;58864;45.928;20.078;2023-04-05T08:03:10;13.93;;;5.40;;
71166;SDS011;58864;45.928;20.078;2023-04-05T08:05:34;10.93;;;4.60;;
71166;SDS011;58864;45.928;20.078;2023-04-05T08:07:59;10.87;;;4.23;;
71166;SDS011;58864;45.928;20.078;2023-04-05T08:10:23;11.65;;;5.03;;
71166;SDS011;58864;45.928;20.078;2023-04-05T08:12:48;10.43;;;4.20;;
71166;SDS011;58864;45.928;20.078;2023-04-05T08:15:13;8.95;;;4.30;;
71166;SDS011;58864;45.928;20.078;2023-04-05T08:17:37;13.20;;;4.57;;
71166;SDS011;58864;45.928;20.078;2023-04-05T08:20:02;10.87;;;4.50;;
71166;SDS011;58864;45.928;20.078;2023-04-05T08:22:28;11.93;;;4.50;;
71166;SDS011;58864;45.928;20.078;2023-04-05T08:24:52;11.67;;;4.63;;
71166;SDS011;58864;45.928;20.078;2023-04-05T08:27:17;12.32;;;4.50;;
71166;SDS011;58864;45.928;20.078;2023-04-05T08:29:41;11.67;;;4.63;;
71166;SDS011;58864;45.928;20.078;2023-04-05T08:32:06;14.70;;;5.20;;
71166;SDS011;58864;45.928;20.078;2023-04-05T08:34:31;15.07;;;5.47;;
71166;SDS011;58864;45.928;20.078;2023-04-05T08:36:59;11.80;;;4.30;;
71166;SDS011;58864;45.928;20.078;2023-04-05T08:39:23;12.73;;;4.72;;
71166;SDS011;58864;45.928;20.078;2023-04-05T08:41:53;17.65;;;6.15;;
71166;SDS011;58864;45.928;20.078;2023-04-05T08:44:20;15.70;;;4.73;;
71166;SDS011;58864;45.928;20.078;2023-04-05T08:46:45;17.80;;;6.78;;
71166;SDS011;58864;45.928;20.078;2023-04-05T08:49:10;14.68;;;5.65;;
71166;SDS011;58864;45.928;20.078;2023-04-05T08:51:35;11.33;;;4.60;;
71166;SDS011;58864;45.928;20.078;2023-04-05T08:54:02;11.90;;;4.68;;
71166;SDS011;58864;45.928;20.078;2023-04-05T08:56:31;11.85;;;5.07;;
71166;SDS011;58864;45.928;20.078;2023-04-05T09:01:28;10.37;;;4.50;;
71166;SDS011;58864;45.928;20.078;2023-04-05T09:03:53;13.50;;;5.60;;
71166;SDS011;58864;45.928;20.078;2023-04-05T09:06:20;12.27;;;5.22;;
71166;SDS011;58864;45.928;20.078;2023-04-05T09:08:45;39.42;;;14.68;;
71166;SDS011;58864;45.928;20.078;2023-04-05T09:11:10;14.17;;;5.60;;
71166;SDS011;58864;45.928;20.078;2023-04-05T09:13:35;12.98;;;5.38;;
71166;SDS011;58864;45.928;20.078;2023-04-05T09:16:00;14.20;;;5.80;;
71166;SDS011;58864;45.928;20.078;2023-04-05T09:18:25;12.63;;;5.93;;
71166;SDS011;58864;45.928;20.078;2023-04-05T09:20:50;18.27;;;6.32;;
71166;SDS011;58864;45.928;20.078;2023-04-05T09:23:14;12.43;;;5.37;;
71166;SDS011;58864;45.928;20.078;2023-04-05T09:25:40;11.48;;;5.45;;
71166;SDS011;58864;45.928;20.078;2023-04-05T09:28:05;11.97;;;4.67;;
71166;SDS011;58864;45.928;20.078;2023-04-05T09:30:30;21.17;;;8.20;;
71166;SDS011;58864;45.928;20.078;2023-04-05T09:32:56;12.88;;;5.05;;
71166;SDS011;58864;45.928;20.078;2023-04-05T09:35:21;10.10;;;4.80;;
71166;SDS011;58864;45.928;20.078;2023-04-05T09:37:50;14.73;;;5.85;;
71166;SDS011;58864;45.928;20.078;2023-04-05T09:40:16;9.35;;;4.28;;
71166;SDS011;58864;45.928;20.078;2023-04-05T09:42:44;11.80;;;5.17;;
71166;SDS011;58864;45.928;20.078;2023-04-05T09:45:09;11.50;;;4.60;;
71166;SDS011;58864;45.928;20.078;2023-04-05T09:47:34;14.50;;;5.05;;
71166;SDS011;58864;45.928;20.078;2023-04-05T09:49:59;14.40;;;4.80;;
71166;SDS011;58864;45.928;20.078;2023-04-05T09:52:25;19.13;;;7.45;;
71166;SDS011;58864;45.928;20.078;2023-04-05T09:54:55;19.02;;;7.70;;
71166;SDS011;58864;45.928;20.078;2023-04-05T09:57:22;13.05;;;5.60;;
71166;SDS011;58864;45.928;20.078;2023-04-05T09:59:47;14.93;;;5.80;;
71166;SDS011;58864;45.928;20.078;2023-04-05T10:02:12;10.37;;;4.90;;
71166;SDS011;58864;45.928;20.078;2023-04-05T10:04:40;11.25;;;4.40;;
71166;SDS011;58864;45.928;20.078;2023-04-05T10:07:06;14.13;;;5.32;;
71166;SDS011;58864;45.928;20.078;2023-04-05T10:09:31;10.97;;;5.37;;
71166;SDS011;58864;45.928;20.078;2023-04-05T10:11:56;13.23;;;5.07;;
71166;SDS011;58864;45.928;20.078;2023-04-05T10:14:21;11.60;;;5.07;;
71166;SDS011;58864;45.928;20.078;2023-04-05T10:19:36;12.27;;;5.00;;
71166;SDS011;58864;45.928;20.078;2023-04-05T10:22:12;12.50;;;4.63;;
71166;SDS011;58864;45.928;20.078;2023-04-05T10:24:45;12.05;;;5.25;;
71166;SDS011;58864;45.928;20.078;2023-04-05T10:29:56;12.95;;;5.35;;
71166;SDS011;58864;45.928;20.078;2023-04-05T10:32:26;17.70;;;6.87;;
71166;SDS011;58864;45.928;20.078;2023-04-05T10:34:59;17.35;;;5.82;;
71166;SDS011;58864;45.928;20.078;2023-04-05T10:40:03;12.77;;;4.90;;
71166;SDS011;58864;45.928;20.078;2023-04-05T10:42:43;10.35;;;4.53;;
71166;SDS011;58864;45.928;20.078;2023-04-05T10:45:11;10.00;;;4.10;;
71166;SDS011;58864;45.928;20.078;2023-04-05T10:47:41;11.45;;;3.90;;
71166;SDS011;58864;45.928;20.078;2023-04-05T10:50:07;9.07;;;4.60;;
71166;SDS011;58864;45.928;20.078;2023-04-05T10:52:32;9.38;;;4.03;;
71166;SDS011;58864;45.928;20.078;2023-04-05T10:54:57;11.80;;;4.85;;
71166;SDS011;58864;45.928;20.078;2023-04-05T10:57:22;10.03;;;4.17;;
71166;SDS011;58864;45.928;20.078;2023-04-05T10:59:47;12.60;;;5.22;;
71166;SDS011;58864;45.928;20.078;2023-04-05T11:02:13;12.60;;;5.03;;
71166;SDS011;58864;45.928;20.078;2023-04-05T11:04:38;12.75;;;5.53;;
71166;SDS011;58864;45.928;20.078;2023-04-05T11:07:14;10.77;;;3.90;;
71166;SDS011;58864;45.928;20.078;2023-04-05T11:09:54;14.15;;;4.50;;
71166;SDS011;58864;45.928;20.078;2023-04-05T11:18:02;13.02;;;5.13;;
71166;SDS011;58864;45.928;20.078;2023-04-05T11:20:40;12.70;;;4.07;;
71166;SDS011;58864;45.928;20.078;2023-04-05T11:23:09;12.10;;;4.72;;
71166;SDS011;58864;45.928;20.078;2023-04-05T11:25:38;11.20;;;5.30;;
71166;SDS011;58864;45.928;20.078;2023-04-05T11:28:04;8.35;;;3.83;;
71166;SDS011;58864;45.928;20.078;2023-04-05T11:30:44;10.70;;;3.87;;
71166;SDS011;58864;45.928;20.078;2023-04-05T11:36:10;8.77;;;3.97;;
71166;SDS011;58864;45.928;20.078;2023-04-05T11:38:36;11.45;;;4.70;;
71166;SDS011;58864;45.928;20.078;2023-04-05T11:41:18;11.87;;;5.87;;
71166;SDS011;58864;45.928;20.078;2023-04-05T11:43:44;12.70;;;4.88;;
71166;SDS011;58864;45.928;20.078;2023-04-05T11:46:10;11.05;;;4.70;;
71166;SDS011;58864;45.928;20.078;2023-04-05T11:48:35;11.25;;;4.53;;
71166;SDS011;58864;45.928;20.078;2023-04-05T11:51:00;10.87;;;4.10;;
71166;SDS011;58864;45.928;20.078;2023-04-05T11:53:30;10.10;;;3.65;;
71166;SDS011;58864;45.928;20.078;2023-04-05T11:55:55;17.80;;;8.27;;
71166;SDS011;58864;45.928;20.078;2023-04-05T11:58:30;9.60;;;4.32;;
71166;SDS011;58864;45.928;20.078;2023-04-05T12:00:58;8.93;;;4.03;;
71166;SDS011;58864;45.928;20.078;2023-04-05T12:03:27;10.02;;;4.22;;
71166;SDS011;58864;45.928;20.078;2023-04-05T12:05:52;11.18;;;4.28;;
71166;SDS011;58864;45.928;20.078;2023-04-05T12:08:17;11.70;;;4.88;;
71166;SDS011;58864;45.928;20.078;2023-04-05T12:10:43;10.60;;;4.13;;
71166;SDS011;58864;45.928;20.078;2023-04-05T12:13:08;10.75;;;4.30;;
71166;SDS011;58864;45.928;20.078;2023-04-05T12:15:35;12.23;;;4.70;;
71166;SDS011;58864;45.928;20.078;2023-04-05T12:18:01;11.38;;;4.55;;
71166;SDS011;58864;45.928;20.078;2023-04-05T12:20:26;10.90;;;4.10;;
71166;SDS011;58864;45.928;20.078;2023-04-05T12:22:52;9.37;;;3.80;;
71166;SDS011;58864;45.928;20.078;2023-04-05T12:25:18;15.23;;;7.18;;
71166;SDS011;58864;45.928;20.078;2023-04-05T12:27:43;14.10;;;4.75;;
71166;SDS011;58864;45.928;20.078;2023-04-05T12:30:12;11.73;;;4.50;;
71166;SDS011;58864;45.928;20.078;2023-04-05T12:32:45;14.95;;;5.30;;
71166;SDS011;58864;45.928;20.078;2023-04-05T12:35:23;11.63;;;4.80;;
71166;SDS011;58864;45.928;20.078;2023-04-05T12:37:50;10.30;;;4.63;;
71166;SDS011;58864;45.928;20.078;2023-04-05T12:40:19;12.73;;;4.93;;
71166;SDS011;58864;45.928;20.078;2023-04-05T12:42:44;12.50;;;4.30;;
71166;SDS011;58864;45.928;20.078;2023-04-05T12:45:10;15.87;;;5.03;;
71166;SDS011;58864;45.928;20.078;2023-04-05T12:47:35;12.15;;;3.92;;
71166;SDS011;58864;45.928;20.078;2023-04-05T12:50:12;11.98;;;5.10;;
71166;SDS011;58864;45.928;20.078;2023-04-05T12:52:37;8.63;;;4.00;;
71166;SDS011;58864;45.928;20.078;2023-04-05T12:55:02;12.38;;;4.60;;
71166;SDS011;58864;45.928;20.078;2023-04-05T12:57:32;19.60;;;6.67;;
71166;SDS011;58864;45.928;20.078;2023-04-05T12:59:57;14.50;;;4.60;;
71166;SDS011;58864;45.928;20.078;2023-04-05T13:02:21;11.33;;;3.97;;
71166;SDS011;58864;45.928;20.078;2023-04-05T13:04:46;10.15;;;4.53;;
71166;SDS011;58864;45.928;20.078;2023-04-05T13:07:10;12.50;;;5.97;;
71166;SDS011;58864;45.928;20.078;2023-04-05T13:09:35;15.33;;;5.80;;
71166;SDS011;58864;45.928;20.078;2023-04-05T13:12:00;14.50;;;5.85;;
71166;SDS011;58864;45.928;20.078;2023-04-05T13:14:25;12.93;;;5.32;;
71166;SDS011;58864;45.928;20.078;2023-04-05T13:16:49;13.70;;;4.90;;
71166;SDS011;58864;45.928;20.078;2023-04-05T13:19:14;9.27;;;3.90;;
71166;SDS011;58864;45.928;20.078;2023-04-05T13:21:38;13.27;;;4.70;;
71166;SDS011;58864;45.928;20.078;2023-04-05T13:24:03;10.50;;;4.47;;
71166;SDS011;58864;45.928;20.078;2023-04-05T13:26:28;14.10;;;5.00;;
71166;SDS011;58864;45.928;20.078;2023-04-05T13:28:52;13.27;;;5.77;;
71166;SDS011;58864;45.928;20.078;2023-04-05T13:31:19;11.73;;;4.20;;
71166;SDS011;58864;45.928;20.078;2023-04-05T13:33:43;9.30;;;4.17;;
71166;SDS011;58864;45.928;20.078;2023-04-05T13:36:09;7.68;;;4.05;;
71166;SDS011;58864;45.928;20.078;2023-04-05T13:38:35;12.73;;;4.60;;
71166;SDS011;58864;45.928;20.078;2023-04-05T13:40:59;13.57;;;5.03;;
71166;SDS011;58864;45.928;20.078;2023-04-05T13:43:24;10.17;;;4.27;;
71166;SDS011;58864;45.928;20.078;2023-04-05T13:45:50;13.73;;;5.20;;
71166;SDS011;58864;45.928;20.078;2023-04-05T13:48:15;12.40;;;4.93;;
71166;SDS011;58864;45.928;20.078;2023-04-05T13:50:39;9.97;;;3.80;;
71166;SDS011;58864;45.928;20.078;2023-04-05T13:53:04;16.20;;;4.73;;
71166;SDS011;58864;45.928;20.078;2023-04-05T13:55:28;12.93;;;5.00;;
71166;SDS011;58864;45.928;20.078;2023-04-05T13:57:53;12.80;;;4.95;;
71166;SDS011;58864;45.928;20.078;2023-04-05T14:00:17;13.20;;;4.93;;
71166;SDS011;58864;45.928;20.078;2023-04-05T14:02:42;17.20;;;6.37;;
71166;SDS011;58864;45.928;20.078;2023-04-05T14:05:07;20.88;;;7.88;;
71166;SDS011;58864;45.928;20.078;2023-04-05T14:07:31;28.83;;;10.32;;
71166;SDS011;58864;45.928;20.078;2023-04-05T14:09:56;25.83;;;12.60;;
71166;SDS011;58864;45.928;20.078;2023-04-05T14:12:22;16.40;;;6.60;;
71166;SDS011;58864;45.928;20.078;2023-04-05T14:14:47;10.70;;;4.82;;
71166;SDS011;58864;45.928;20.078;2023-04-05T14:17:12;12.80;;;5.80;;
71166;SDS011;58864;45.928;20.078;2023-04-05T14:19:36;14.57;;;4.72;;
71166;SDS011;58864;45.928;20.078;2023-04-05T14:22:02;15.20;;;6.17;;
71166;SDS011;58864;45.928;20.078;2023-04-05T14:24:26;12.15;;;4.32;;
71166;SDS011;58864;45.928;20.078;2023-04-05T14:26:50;15.40;;;5.17;;
71166;SDS011;58864;45.928;20.078;2023-04-05T14:29:15;12.50;;;4.73;;
71166;SDS011;58864;45.928;20.078;2023-04-05T14:31:40;11.82;;;5.32;;
71166;SDS011;58864;45.928;20.078;2023-04-05T14:34:05;14.10;;;5.60;;
71166;SDS011;58864;45.928;20.078;2023-04-05T14:36:29;11.75;;;5.15;;
71166;SDS011;58864;45.928;20.078;2023-04-05T14:38:54;17.10;;;7.00;;
71166;SDS011;58864;45.928;20.078;2023-04-05T14:41:18;21.27;;;7.10;;
71166;SDS011;58864;45.928;20.078;2023-04-05T14:43:43;10.93;;;4.77;;
71166;SDS011;58864;45.928;20.078;2023-04-05T14:46:07;11.13;;;4.07;;